Erie (ERI/KERI)

Map

Destinations

Information

Location
Erie, PA
Local Time
20:10 / 8:10 pm
GMT Time
00:10 / 12:10 am
Gates
4
No FAA reported delays
METAR KERI 252351Z 16006KT 10SM OVC055 19/12 A2980 RMK AO2 SLP091 T01940117 10217 20167 55006
TAF KERI 252325Z 2600/2624 11010KT P6SM BKN070 FM260300 12006KT P6SM BKN150 FM261600 07008KT P6SM SCT040